createdAt,value
2019-03-04T00:03:52.908Z,5.82
2019-03-04T00:08:56.908Z,5.78
2019-03-04T00:14:00.862Z,5.83
2019-03-04T00:19:04.837Z,6.02
2019-03-04T00:24:09.083Z,5.90
2019-03-04T00:29:13.025Z,5.86
2019-03-04T00:34:17.925Z,5.73
2019-03-04T00:39:21.858Z,5.66
2019-03-04T00:44:25.795Z,5.54
2019-03-04T00:49:29.750Z,5.52
2019-03-04T00:54:33.723Z,5.49
2019-03-04T00:59:37.693Z,5.49
2019-03-04T01:04:41.623Z,5.59
2019-03-04T01:09:45.606Z,5.51
2019-03-04T01:14:49.662Z,5.68
2019-03-04T01:19:53.647Z,5.61
2019-03-04T01:24:57.559Z,5.73
2019-03-04T01:30:01.508Z,5.82
2019-03-04T01:35:06.443Z,5.84
2019-03-04T01:40:13.025Z,5.79
2019-03-04T01:45:17.903Z,5.83
2019-03-04T01:50:21.844Z,5.83
2019-03-04T01:55:25.752Z,5.79
2019-03-04T02:00:29.877Z,5.80
2019-03-04T02:05:33.817Z,5.83
2019-03-04T02:10:37.798Z,5.76
2019-03-04T02:15:41.773Z,5.80
2019-03-04T02:20:45.727Z,5.86
2019-03-04T02:26:10.158Z,5.86
2019-03-04T02:31:14.122Z,5.82
2019-03-04T02:36:18.144Z,5.86
2019-03-04T02:41:22.139Z,5.81
2019-03-04T02:46:26.155Z,5.80
2019-03-04T02:51:30.041Z,5.79
2019-03-04T02:56:34.089Z,5.89
2019-03-04T03:01:38.025Z,5.95
2019-03-04T03:06:41.968Z,5.95
2019-03-04T03:11:45.943Z,5.87
2019-03-04T03:16:49.938Z,5.78
2019-03-04T03:21:53.987Z,5.83
2019-03-04T03:26:57.990Z,5.84
2019-03-04T03:32:02.004Z,5.87
2019-03-04T03:37:06.824Z,5.88
2019-03-04T03:42:10.769Z,5.93
2019-03-04T03:47:14.765Z,5.92
2019-03-04T03:52:18.709Z,5.97
2019-03-04T03:57:22.680Z,5.92
2019-03-04T04:02:26.689Z,5.85
2019-03-04T04:07:30.690Z,5.72
2019-03-04T04:12:34.663Z,5.69
2019-03-04T04:17:38.702Z,5.71
2019-03-04T04:22:42.776Z,5.70
2019-03-04T04:27:46.810Z,5.75
2019-03-04T04:32:50.863Z,5.79
2019-03-04T04:37:54.955Z,5.60
2019-03-04T04:42:58.867Z,5.68
2019-03-04T04:48:02.963Z,5.66
2019-03-04T04:53:06.898Z,5.77
2019-03-04T04:58:10.902Z,5.74
2019-03-04T05:03:14.838Z,5.89
2019-03-04T05:08:18.803Z,5.89
2019-03-04T05:13:22.803Z,5.78
2019-03-04T05:18:26.778Z,5.80
2019-03-04T05:23:30.814Z,5.72
2019-03-04T05:28:34.757Z,5.47
2019-03-04T05:33:38.778Z,5.68
2019-03-04T05:38:42.808Z,5.68
2019-03-04T05:43:46.865Z,5.76
2019-03-04T05:48:50.850Z,5.83
2019-03-04T05:53:54.865Z,5.89
2019-03-04T05:58:58.785Z,5.83
2019-03-04T06:04:05.201Z,5.84
2019-03-04T06:09:09.468Z,5.75
2019-03-04T06:14:13.470Z,5.63
2019-03-04T06:19:17.484Z,5.65
2019-03-04T06:24:21.402Z,5.81
2019-03-04T06:29:25.358Z,5.72
2019-03-04T06:34:29.278Z,5.45
2019-03-04T06:39:33.382Z,5.41
2019-03-04T06:44:37.390Z,5.31
2019-03-04T06:49:41.555Z,5.37
2019-03-04T06:55:00.567Z,5.50
2019-03-04T07:00:18.387Z,5.46
2019-03-04T07:05:44.360Z,5.42
2019-03-04T07:10:48.382Z,5.38
2019-03-04T07:15:52.418Z,5.44
2019-03-04T07:20:56.418Z,5.54
2019-03-04T07:26:00.352Z,5.60
2019-03-04T07:31:04.312Z,5.65
2019-03-04T07:36:08.372Z,5.56
2019-03-04T07:41:12.277Z,5.52
2019-03-04T07:46:16.334Z,5.62
2019-03-04T07:51:22.703Z,5.71
2019-03-04T07:56:26.607Z,5.85
2019-03-04T08:01:30.754Z,6.01
2019-03-04T08:06:34.807Z,6.34
2019-03-04T08:11:59.302Z,6.49
2019-03-04T08:17:06.775Z,6.45
2019-03-04T08:22:10.737Z,6.61
2019-03-04T08:27:14.679Z,6.42
2019-03-04T08:32:18.647Z,6.36
2019-03-04T08:37:22.577Z,5.96
2019-03-04T08:42:26.577Z,6.09
2019-03-04T08:47:31.016Z,6.31
2019-03-04T08:52:34.959Z,6.49
2019-03-04T08:57:38.921Z,6.74
2019-03-04T09:02:42.926Z,6.88
2019-03-04T09:07:47.227Z,6.95
2019-03-04T09:12:51.208Z,6.91
2019-03-04T09:17:55.163Z,7.20
2019-03-04T09:22:59.113Z,6.70
2019-03-04T09:28:03.263Z,6.82
2019-03-04T09:33:07.499Z,7.61
2019-03-04T09:38:11.634Z,7.80
2019-03-04T09:43:15.778Z,8.39
2019-03-04T09:48:19.790Z,8.55
2019-03-04T09:53:23.688Z,8.42
2019-03-04T09:58:27.677Z,8.52
2019-03-04T10:03:51.848Z,8.57
2019-03-04T10:09:02.794Z,9.04
2019-03-04T10:14:19.928Z,9.28
2019-03-04T10:19:37.974Z,9.95
2019-03-04T10:24:56.507Z,9.98
2019-03-04T10:30:14.047Z,9.83
2019-03-04T10:35:25.317Z,9.74
2019-03-04T10:40:41.330Z,9.74
2019-03-04T10:46:04.873Z,10.26
2019-03-04T10:51:09.043Z,9.34
2019-03-04T10:56:14.522Z,9.12
2019-03-04T11:01:18.703Z,8.12
2019-03-04T11:06:22.842Z,7.84
2019-03-04T11:11:30.015Z,7.52
2019-03-04T11:16:35.687Z,7.34
2019-03-04T11:21:39.721Z,8.38
2019-03-04T11:26:43.759Z,8.87
2019-03-04T11:31:47.753Z,8.83
2019-03-04T11:36:51.888Z,7.60
2019-03-04T11:41:55.925Z,7.47
2019-03-04T11:47:00.735Z,7.47
2019-03-04T11:52:04.708Z,8.26
2019-03-04T11:57:08.832Z,10.21
2019-03-04T12:02:13.053Z,10.37
2019-03-04T12:07:17.113Z,11.16
2019-03-04T12:12:21.058Z,10.50
2019-03-04T12:17:25.262Z,9.40
2019-03-04T12:22:29.348Z,8.63
2019-03-04T12:27:33.333Z,9.36
2019-03-04T12:32:37.373Z,10.29
2019-03-04T12:37:41.773Z,10.63
2019-03-04T12:42:45.802Z,11.04
2019-03-04T12:47:50.952Z,10.99
2019-03-04T12:52:55.092Z,11.54
2019-03-04T12:57:58.993Z,11.36
2019-03-04T13:03:03.183Z,11.56
2019-03-04T13:08:07.123Z,11.66
2019-03-04T13:13:11.122Z,10.88
2019-03-04T13:18:15.103Z,11.27
2019-03-04T13:23:19.218Z,10.81
2019-03-04T13:28:23.480Z,10.82
2019-03-04T13:33:27.482Z,10.84
2019-03-04T13:38:31.435Z,9.98
2019-03-04T13:43:35.486Z,9.23
2019-03-04T13:48:39.605Z,9.29
2019-03-04T13:53:43.566Z,9.07
2019-03-04T13:58:47.828Z,8.96
2019-03-04T14:03:52.516Z,8.66
2019-03-04T14:08:56.458Z,8.61
2019-03-04T14:14:01.994Z,8.55
2019-03-04T14:19:06.332Z,6.69
2019-03-04T14:24:10.275Z,5.60
2019-03-04T14:29:14.241Z,6.12
2019-03-04T14:34:18.269Z,7.25
2019-03-04T14:39:22.291Z,8.05
2019-03-04T14:44:27.485Z,9.10
2019-03-04T14:49:31.647Z,9.20
2019-03-04T14:54:35.647Z,9.19
2019-03-04T14:59:39.713Z,9.06
2019-03-04T15:04:43.806Z,9.29
2019-03-04T15:09:49.638Z,9.09
2019-03-04T15:14:55.254Z,9.06
2019-03-04T15:20:08.600Z,9.04
2019-03-04T15:25:07.646Z,9.25
2019-03-04T15:30:12.268Z,9.29
2019-03-04T15:35:16.341Z,8.68
2019-03-04T15:40:20.268Z,9.18
2019-03-04T15:45:24.302Z,9.57
2019-03-04T15:50:28.352Z,9.45
2019-03-04T15:55:32.397Z,8.88
2019-03-04T16:00:36.519Z,8.35
2019-03-04T16:05:40.450Z,8.74
2019-03-04T16:10:44.419Z,8.31
2019-03-04T16:15:48.440Z,8.14
2019-03-04T16:20:52.455Z,7.88
2019-03-04T16:25:56.527Z,7.95
2019-03-04T16:31:00.780Z,8.15
2019-03-04T16:36:05.968Z,8.46
2019-03-04T16:41:09.939Z,8.13
2019-03-04T16:46:13.911Z,7.91
2019-03-04T16:51:18.043Z,8.08
2019-03-04T16:56:22.036Z,8.05
2019-03-04T17:01:26.034Z,8.17
2019-03-04T17:06:30.021Z,8.13
2019-03-04T17:11:34.010Z,7.80
2019-03-04T17:16:38.214Z,7.60
2019-03-04T17:21:42.409Z,7.61
2019-03-04T17:26:46.658Z,7.61
2019-03-04T17:31:50.616Z,6.79
2019-03-04T17:36:54.682Z,6.43
2019-03-04T17:41:58.874Z,6.53
2019-03-04T17:47:03.091Z,6.76
2019-03-04T17:52:07.210Z,7.02
2019-03-04T17:57:12.731Z,5.33
2019-03-04T18:02:16.960Z,5.21
2019-03-04T18:07:21.150Z,5.28
2019-03-04T18:12:25.226Z,5.29
2019-03-04T18:17:29.239Z,5.16
2019-03-04T18:22:33.190Z,5.14
2019-03-04T18:27:44.406Z,5.33
2019-03-04T18:33:26.476Z,5.70
2019-03-04T18:38:38.936Z,6.18
2019-03-04T18:43:51.754Z,6.50
2019-03-04T18:48:57.202Z,6.60
2019-03-04T18:54:04.436Z,6.72
2019-03-04T18:59:09.012Z,6.84
2019-03-04T19:04:12.962Z,6.92
2019-03-04T19:09:16.948Z,6.94
2019-03-04T19:14:20.862Z,6.96
2019-03-04T19:19:24.902Z,7.03
2019-03-04T19:24:28.805Z,6.98
2019-03-04T19:29:32.785Z,7.01
2019-03-04T19:34:36.774Z,7.12
2019-03-04T19:39:40.954Z,7.19
2019-03-04T19:44:46.052Z,7.26
2019-03-04T19:49:50.161Z,7.29
2019-03-04T19:54:54.206Z,7.33
2019-03-04T19:59:58.215Z,7.10
2019-03-04T20:05:02.226Z,7.18
2019-03-04T20:10:07.276Z,7.19
2019-03-04T20:15:13.986Z,7.17
2019-03-04T20:20:18.102Z,7.17
2019-03-04T20:25:22.442Z,5.55
2019-03-04T20:30:26.443Z,5.32
2019-03-04T20:35:30.335Z,5.17
2019-03-04T20:40:34.352Z,5.30
2019-03-04T20:45:38.387Z,5.76
2019-03-04T20:50:42.372Z,5.86
2019-03-04T20:55:46.360Z,5.71
2019-03-04T21:00:50.457Z,5.76
2019-03-04T21:05:54.486Z,5.89
2019-03-04T21:10:59.021Z,5.87
2019-03-04T21:16:03.078Z,6.03
2019-03-04T21:21:06.991Z,6.07
2019-03-04T21:26:15.765Z,6.10
2019-03-04T21:31:27.955Z,6.09
2019-03-04T21:36:42.059Z,6.02
2019-03-04T21:41:54.412Z,5.97
2019-03-04T21:47:04.323Z,5.99
2019-03-04T21:52:20.563Z,6.10
2019-03-04T21:57:34.082Z,6.34
2019-03-04T22:02:44.640Z,6.47
2019-03-04T22:07:49.289Z,6.62
2019-03-04T22:12:53.247Z,6.72
2019-03-04T22:17:57.249Z,6.83
2019-03-04T22:23:01.200Z,6.74
2019-03-04T22:28:05.257Z,6.57
2019-03-04T22:33:09.256Z,6.66
2019-03-04T22:38:13.119Z,6.80
2019-03-04T22:43:17.201Z,6.71
2019-03-04T22:48:21.330Z,6.73
2019-03-04T22:53:25.487Z,6.84
2019-03-04T22:58:29.631Z,6.74
2019-03-04T23:03:34.050Z,6.84
2019-03-04T23:08:38.611Z,6.93
2019-03-04T23:13:53.310Z,6.96
2019-03-04T23:18:59.510Z,6.31
2019-03-04T23:24:03.490Z,5.97
2019-03-04T23:29:07.470Z,5.92
2019-03-04T23:34:11.650Z,6.08
2019-03-04T23:39:15.610Z,6.29
2019-03-04T23:44:19.676Z,6.67
2019-03-04T23:49:23.731Z,6.79
2019-03-04T23:54:27.651Z,6.84
2019-03-04T23:59:32.650Z,6.89
